Wetterdaten: Woche 05.11.12 - 11.11.12 (KW45)
Datum Zeit Temperatur Luftfeuchte Luftdruck Niederschlag Windrichtung Sonnenschein Solar Wind
05.11.2012 00:00 7,0 C 95 % 1001,2 hPa 1,4 l/m W 0,00 h 0 W/m 7,2 km/h (2 Bft)
05.11.2012 01:00 6,6 C 95 % 1001,2 hPa 0,8 l/m SW 0,00 h 0 W/m 8,3 km/h (2 Bft)
05.11.2012 02:00 6,4 C 96 % 1001,6 hPa 1,0 l/m SW 0,00 h 0 W/m 12,1 km/h (2 Bft)
05.11.2012 03:00 6,1 C 96 % 1001,7 hPa 0,4 l/m SW 0,00 h 0 W/m 13,8 km/h (3 Bft)
05.11.2012 04:00 5,7 C 96 % 1001,9 hPa 0,4 l/m W 0,00 h 0 W/m 13,8 km/h (3 Bft)
05.11.2012 05:00 4,9 C 95 % 1001,9 hPa 0,2 l/m W-SW 0,00 h 0 W/m 12,0 km/h (2 Bft)
05.11.2012 06:00 4,6 C 95 % 1002,1 hPa 0,0 l/m SW 0,00 h 0 W/m 11,2 km/h (2 Bft)
05.11.2012 07:00 4,4 C 96 % 1002,6 hPa 0,0 l/m S-SW 0,00 h 11 W/m 8,2 km/h (2 Bft)
05.11.2012 08:00 4,2 C 96 % 1003,1 hPa 0,0 l/m S-SW 0,25 h 59 W/m 4,9 km/h (1 Bft)
05.11.2012 09:00 5,5 C 97 % 1003,3 hPa 0,0 l/m SW 0,92 h 221 W/m 15,6 km/h (3 Bft)
05.11.2012 10:00 7,1 C 89 % 1003,5 hPa 0,0 l/m SW 0,75 h 354 W/m 22,6 km/h (4 Bft)
05.11.2012 11:00 8,0 C 81 % 1003,7 hPa 0,0 l/m W-SW 0,58 h 293 W/m 23,9 km/h (4 Bft)
05.11.2012 12:00 8,7 C 76 % 1003,6 hPa 0,0 l/m SW 0,75 h 285 W/m 27,4 km/h (4 Bft)
05.11.2012 13:00 8,3 C 76 % 1003,5 hPa 0,0 l/m W-SW 0,00 h 99 W/m 24,5 km/h (4 Bft)
05.11.2012 14:00 8,4 C 78 % 1003,6 hPa 0,0 l/m SW 0,00 h 81 W/m 20,2 km/h (4 Bft)
05.11.2012 15:00 7,4 C 86 % 1004,2 hPa 1,0 l/m W-SW 0,33 h 70 W/m 18,2 km/h (3 Bft)
05.11.2012 16:00 6,8 C 89 % 1004,9 hPa 0,0 l/m W-SW 0,00 h 19 W/m 16,6 km/h (3 Bft)
05.11.2012 17:00 6,3 C 90 % 1006,0 hPa 0,0 l/m W-SW 0,00 h 0 W/m 17,8 km/h (3 Bft)
05.11.2012 18:00 6,1 C 91 % 1007,3 hPa 0,0 l/m W 0,00 h 0 W/m 11,9 km/h (2 Bft)
05.11.2012 19:00 5,9 C 92 % 1008,0 hPa 0,0 l/m W-SW 0,00 h 0 W/m 12,1 km/h (2 Bft)
05.11.2012 20:00 5,2 C 91 % 1008,7 hPa 0,0 l/m W-SW 0,00 h 0 W/m 12,5 km/h (3 Bft)
05.11.2012 21:00 5,1 C 91 % 1009,5 hPa 0,4 l/m SW 0,00 h 0 W/m 15,2 km/h (3 Bft)
05.11.2012 22:00 5,2 C 93 % 1010,1 hPa 0,0 l/m W-SW 0,00 h 0 W/m 16,4 km/h (3 Bft)
05.11.2012 23:00 4,8 C 92 % 1010,6 hPa 0,0 l/m SW 0,00 h 0 W/m 16,6 km/h (3 Bft)
06.11.2012 00:00 4,7 C 93 % 1011,1 hPa 0,0 l/m SW 0,00 h 0 W/m 17,3 km/h (3 Bft)
06.11.2012 01:00 4,9 C 93 % 1011,3 hPa 0,0 l/m SW 0,00 h 0 W/m 10,2 km/h (2 Bft)
06.11.2012 02:00 4,8 C 92 % 1011,7 hPa 0,0 l/m W-SW 0,00 h 0 W/m 12,1 km/h (2 Bft)
06.11.2012 03:00 4,4 C 92 % 1012,0 hPa 0,0 l/m W-SW 0,00 h 0 W/m 11,3 km/h (2 Bft)
06.11.2012 04:00 4,5 C 93 % 1012,3 hPa 0,4 l/m W-SW 0,00 h 0 W/m 9,7 km/h (2 Bft)
06.11.2012 05:00 4,3 C 93 % 1012,7 hPa 0,6 l/m W-SW 0,00 h 0 W/m 12,4 km/h (3 Bft)
06.11.2012 06:00 4,0 C 94 % 1013,5 hPa 1,2 l/m W 0,00 h 0 W/m 9,2 km/h (2 Bft)
06.11.2012 07:00 3,5 C 94 % 1014,3 hPa 0,4 l/m W 0,00 h 5 W/m 7,1 km/h (2 Bft)
06.11.2012 08:00 3,5 C 95 % 1015,2 hPa 0,2 l/m W-SW 0,00 h 21 W/m 5,3 km/h (1 Bft)
06.11.2012 09:00 4,3 C 96 % 1016,1 hPa 0,0 l/m W-SW 0,08 h 97 W/m 4,8 km/h (1 Bft)
06.11.2012 10:00 5,3 C 91 % 1016,8 hPa 0,0 l/m NW 0,33 h 131 W/m 7,5 km/h (2 Bft)
06.11.2012 11:00 5,5 C 89 % 1017,4 hPa 0,0 l/m NW 0,00 h 107 W/m 8,2 km/h (2 Bft)
06.11.2012 12:00 4,8 C 90 % 1017,7 hPa 0,4 l/m W-NW 0,00 h 111 W/m 8,9 km/h (2 Bft)
06.11.2012 13:00 5,7 C 87 % 1018,0 hPa 0,0 l/m W 0,58 h 303 W/m 10,2 km/h (2 Bft)
06.11.2012 14:00 6,6 C 78 % 1018,6 hPa 0,0 l/m NW 0,50 h 192 W/m 11,4 km/h (2 Bft)
06.11.2012 15:00 6,0 C 76 % 1019,3 hPa 0,0 l/m NW 0,50 h 83 W/m 7,7 km/h (2 Bft)
06.11.2012 16:00 5,8 C 76 % 1019,8 hPa 0,0 l/m W 0,17 h 24 W/m 6,8 km/h (2 Bft)
06.11.2012 17:00 4,6 C 81 % 1020,4 hPa 0,0 l/m W 0,00 h 0 W/m 5,9 km/h (2 Bft)
06.11.2012 18:00 3,4 C 85 % 1021,3 hPa 0,0 l/m N 0,00 h 0 W/m 4,0 km/h (1 Bft)
06.11.2012 19:00 2,5 C 86 % 1021,9 hPa 0,0 l/m N 0,00 h 0 W/m 0,0 km/h (0 Bft)
06.11.2012 20:00 1,2 C 87 % 1022,5 hPa 0,0 l/m N 0,00 h 0 W/m 0,1 km/h (0 Bft)
06.11.2012 21:00 0,4 C 89 % 1023,2 hPa 0,0 l/m N 0,00 h 0 W/m 1,6 km/h (1 Bft)
06.11.2012 22:00 0,2 C 91 % 1023,4 hPa 0,0 l/m N 0,00 h 0 W/m 0,5 km/h (0 Bft)
06.11.2012 23:00 -0,1 C 93 % 1023,9 hPa 0,0 l/m N 0,00 h 0 W/m 0,8 km/h (0 Bft)
07.11.2012 00:00 -0,3 C 93 % 1024,4 hPa 0,0 l/m W 0,00 h 0 W/m 1,6 km/h (1 Bft)
07.11.2012 01:00 -0,5 C 94 % 1024,9 hPa 0,0 l/m N 0,00 h 0 W/m 3,9 km/h (1 Bft)
07.11.2012 02:00 -0,5 C 95 % 1025,2 hPa 0,0 l/m SW 0,00 h 0 W/m 5,8 km/h (2 Bft)
07.11.2012 03:00 1,0 C 97 % 1025,2 hPa 0,0 l/m SW 0,00 h 0 W/m 16,0 km/h (3 Bft)
07.11.2012 04:00 1,8 C 97 % 1025,9 hPa 0,0 l/m SW 0,00 h 0 W/m 14,1 km/h (3 Bft)
07.11.2012 05:00 2,2 C 97 % 1026,3 hPa 0,0 l/m SW 0,00 h 0 W/m 17,8 km/h (3 Bft)
07.11.2012 06:00 2,8 C 96 % 1026,8 hPa 0,0 l/m SW 0,00 h 0 W/m 22,4 km/h (4 Bft)
07.11.2012 07:00 3,1 C 93 % 1027,3 hPa 0,0 l/m W-SW 0,00 h 6 W/m 23,0 km/h (4 Bft)
07.11.2012 08:00 3,5 C 91 % 1028,1 hPa 0,0 l/m W-SW 0,00 h 21 W/m 23,4 km/h (4 Bft)
07.11.2012 09:00 3,6 C 91 % 1028,6 hPa 0,4 l/m W-SW 0,00 h 42 W/m 32,5 km/h (5 Bft)
07.11.2012 10:00 4,3 C 88 % 1029,0 hPa 0,0 l/m SW 0,00 h 61 W/m 29,4 km/h (5 Bft)
07.11.2012 11:00 4,9 C 85 % 1029,3 hPa 0,0 l/m W-SW 0,00 h 70 W/m 33,5 km/h (5 Bft)
07.11.2012 12:00 5,6 C 81 % 1029,2 hPa 0,0 l/m W-SW 0,00 h 91 W/m 28,3 km/h (4 Bft)
07.11.2012 13:00 6,2 C 79 % 1029,3 hPa 0,0 l/m W-SW 0,00 h 141 W/m 28,8 km/h (5 Bft)
07.11.2012 14:00 6,5 C 79 % 1029,2 hPa 0,0 l/m W-SW 0,00 h 117 W/m 24,8 km/h (4 Bft)
07.11.2012 15:00 6,4 C 80 % 1029,4 hPa 0,0 l/m SW 0,00 h 58 W/m 23,0 km/h (4 Bft)
07.11.2012 16:00 6,3 C 82 % 1029,2 hPa 0,0 l/m W-SW 0,00 h 14 W/m 15,6 km/h (3 Bft)
07.11.2012 17:00 5,8 C 82 % 1029,2 hPa 0,0 l/m W-SW 0,00 h 0 W/m 11,5 km/h (2 Bft)
07.11.2012 18:00 5,1 C 83 % 1029,2 hPa 0,0 l/m SO 0,00 h 0 W/m 8,1 km/h (2 Bft)
07.11.2012 19:00 4,7 C 84 % 1028,9 hPa 0,0 l/m SO 0,00 h 0 W/m 4,1 km/h (1 Bft)
07.11.2012 20:00 4,5 C 83 % 1028,6 hPa 0,0 l/m SO 0,00 h 0 W/m 5,1 km/h (1 Bft)
07.11.2012 21:00 3,6 C 83 % 1028,6 hPa 0,0 l/m N 0,00 h 0 W/m 0,4 km/h (0 Bft)
07.11.2012 22:00 2,1 C 85 % 1028,2 hPa 0,0 l/m N 0,00 h 0 W/m 0,0 km/h (0 Bft)
07.11.2012 23:00 0,9 C 88 % 1027,8 hPa 0,0 l/m N 0,00 h 0 W/m 0,0 km/h (0 Bft)
08.11.2012 00:00 0,1 C 89 % 1027,3 hPa 0,0 l/m N 0,00 h 0 W/m 0,0 km/h (0 Bft)
08.11.2012 01:00 -0,4 C 91 % 1027,0 hPa 0,0 l/m N 0,00 h 0 W/m 0,0 km/h (0 Bft)
08.11.2012 02:00 -0,7 C 92 % 1026,5 hPa 0,0 l/m N 0,00 h 0 W/m 0,0 km/h (0 Bft)
08.11.2012 03:00 -1,1 C 92 % 1026,1 hPa 0,0 l/m N 0,00 h 0 W/m 0,0 km/h (0 Bft)
08.11.2012 04:00 -1,4 C 93 % 1025,3 hPa 0,0 l/m N 0,00 h 0 W/m 0,0 km/h (0 Bft)
08.11.2012 05:00 -1,7 C 93 % 1025,3 hPa 0,0 l/m N 0,00 h 0 W/m 0,1 km/h (0 Bft)
08.11.2012 06:00 -1,9 C 94 % 1025,0 hPa 0,0 l/m N 0,00 h 0 W/m 0,3 km/h (0 Bft)
08.11.2012 07:00 -2,1 C 94 % 1024,8 hPa 0,0 l/m S-SO 0,17 h 16 W/m 1,2 km/h (1 Bft)
08.11.2012 08:00 -1,2 C 96 % 1024,4 hPa 0,0 l/m S-SW 0,00 h 38 W/m 4,5 km/h (1 Bft)
08.11.2012 09:00 0,6 C 97 % 1024,5 hPa 0,0 l/m S-SW 0,00 h 94 W/m 2,7 km/h (1 Bft)
08.11.2012 10:00 1,5 C 98 % 1024,3 hPa 0,0 l/m S-SW 0,00 h 158 W/m 3,6 km/h (1 Bft)
08.11.2012 11:00 3,8 C 98 % 1023,5 hPa 0,0 l/m S-SW 0,33 h 223 W/m 6,6 km/h (2 Bft)
08.11.2012 12:00 5,6 C 91 % 1022,6 hPa 0,0 l/m S 0,00 h 185 W/m 11,8 km/h (2 Bft)
08.11.2012 13:00 6,3 C 89 % 1021,6 hPa 0,0 l/m S-SW 0,67 h 237 W/m 10,6 km/h (2 Bft)
08.11.2012 14:00 7,7 C 83 % 1020,7 hPa 0,0 l/m S-SW 0,75 h 206 W/m 9,0 km/h (2 Bft)
08.11.2012 15:00 7,5 C 83 % 1020,0 hPa 0,0 l/m S-SW 0,00 h 50 W/m 8,0 km/h (2 Bft)
08.11.2012 16:00 6,9 C 85 % 1019,8 hPa 0,0 l/m S-SW 0,00 h 17 W/m 4,4 km/h (1 Bft)
08.11.2012 17:00 6,0 C 85 % 1020,4 hPa 0,0 l/m S-SW 0,00 h 0 W/m 2,8 km/h (1 Bft)
08.11.2012 18:00 5,3 C 88 % 1020,5 hPa 0,0 l/m SW 0,00 h 0 W/m 7,0 km/h (2 Bft)
08.11.2012 19:00 5,1 C 89 % 1020,6 hPa 0,0 l/m S-SW 0,00 h 0 W/m 6,0 km/h (2 Bft)
08.11.2012 20:00 4,6 C 90 % 1020,7 hPa 0,0 l/m S-SW 0,00 h 0 W/m 3,7 km/h (1 Bft)
08.11.2012 21:00 4,0 C 91 % 1020,5 hPa 0,0 l/m S-SW 0,00 h 0 W/m 5,3 km/h (1 Bft)
08.11.2012 22:00 3,8 C 93 % 1020,3 hPa 0,0 l/m S-SW 0,00 h 0 W/m 3,9 km/h (1 Bft)
08.11.2012 23:00 4,1 C 94 % 1020,4 hPa 0,0 l/m S-SW 0,00 h 0 W/m 4,1 km/h (1 Bft)
09.11.2012 00:00 4,1 C 93 % 1020,4 hPa 0,0 l/m N 0,00 h 0 W/m 1,6 km/h (1 Bft)
09.11.2012 01:00 3,3 C 92 % 1020,0 hPa 0,0 l/m N 0,00 h 0 W/m 1,5 km/h (1 Bft)
09.11.2012 02:00 2,3 C 92 % 1020,1 hPa 0,0 l/m N 0,00 h 0 W/m 0,0 km/h (0 Bft)
09.11.2012 03:00 1,3 C 92 % 1020,2 hPa 0,0 l/m N 0,00 h 0 W/m 0,7 km/h (0 Bft)
09.11.2012 04:00 0,8 C 93 % 1020,0 hPa 0,0 l/m N 0,00 h 0 W/m 0,9 km/h (0 Bft)
09.11.2012 05:00 0,3 C 93 % 1019,9 hPa 0,0 l/m N 0,00 h 0 W/m 0,4 km/h (0 Bft)
09.11.2012 06:00 -0,2 C 93 % 1019,8 hPa 0,0 l/m N 0,00 h 0 W/m 0,4 km/h (0 Bft)
09.11.2012 07:00 -0,5 C 96 % 1020,0 hPa 0,0 l/m N 0,00 h 12 W/m 0,3 km/h (0 Bft)
09.11.2012 08:00 -0,2 C 95 % 1020,5 hPa 0,0 l/m N 0,17 h 44 W/m 0,8 km/h (0 Bft)
09.11.2012 09:00 1,5 C 97 % 1020,0 hPa 0,2 l/m N 0,92 h 202 W/m 0,5 km/h (0 Bft)
09.11.2012 10:00 4,9 C 94 % 1019,5 hPa 0,0 l/m N 1,00 h 329 W/m 1,2 km/h (1 Bft)
09.11.2012 11:00 8,1 C 79 % 1018,6 hPa 0,0 l/m S-SW 0,75 h 305 W/m 4,0 km/h (1 Bft)
09.11.2012 12:00 9,2 C 74 % 1017,6 hPa 0,0 l/m S-SW 0,50 h 278 W/m 3,7 km/h (1 Bft)
09.11.2012 13:00 11,0 C 68 % 1016,5 hPa 0,0 l/m O-SO 1,00 h 372 W/m 7,2 km/h (2 Bft)
09.11.2012 14:00 11,5 C 69 % 1015,6 hPa 0,0 l/m O-NO 0,75 h 232 W/m 8,2 km/h (2 Bft)
09.11.2012 15:00 10,4 C 75 % 1014,8 hPa 0,0 l/m O-NO 0,00 h 73 W/m 6,1 km/h (2 Bft)
09.11.2012 16:00 9,7 C 75 % 1013,9 hPa 0,0 l/m O-NO 0,00 h 20 W/m 2,7 km/h (1 Bft)
09.11.2012 17:00 8,3 C 78 % 1013,4 hPa 0,0 l/m O-NO 0,00 h 0 W/m 2,1 km/h (1 Bft)
09.11.2012 18:00 6,9 C 85 % 1013,2 hPa 0,0 l/m O-NO 0,00 h 0 W/m 4,5 km/h (1 Bft)
09.11.2012 19:00 6,0 C 87 % 1012,2 hPa 0,0 l/m O-NO 0,00 h 0 W/m 1,9 km/h (1 Bft)
09.11.2012 20:00 5,3 C 90 % 1011,8 hPa 0,0 l/m O-NO 0,00 h 0 W/m 4,9 km/h (1 Bft)
09.11.2012 21:00 5,0 C 92 % 1012,1 hPa 0,0 l/m NO 0,00 h 0 W/m 6,5 km/h (2 Bft)
09.11.2012 22:00 5,3 C 93 % 1012,7 hPa 0,0 l/m N 0,00 h 0 W/m 1,7 km/h (1 Bft)
09.11.2012 23:00 5,5 C 93 % 1012,5 hPa 0,0 l/m NO 0,00 h 0 W/m 2,9 km/h (1 Bft)
10.11.2012 00:00 5,3 C 93 % 1012,2 hPa 0,0 l/m NO 0,00 h 0 W/m 2,5 km/h (1 Bft)
10.11.2012 01:00 5,2 C 94 % 1011,5 hPa 0,0 l/m N 0,00 h 0 W/m 0,3 km/h (0 Bft)
10.11.2012 02:00 5,1 C 94 % 1011,0 hPa 0,0 l/m N 0,00 h 0 W/m 0,9 km/h (0 Bft)
10.11.2012 03:00 5,2 C 95 % 1010,0 hPa 0,0 l/m N 0,00 h 0 W/m 0,3 km/h (0 Bft)
10.11.2012 04:00 5,2 C 95 % 1009,4 hPa 0,0 l/m N 0,00 h 0 W/m 0,8 km/h (0 Bft)
10.11.2012 05:00 5,4 C 96 % 1008,7 hPa 0,0 l/m N 0,00 h 0 W/m 0,3 km/h (0 Bft)
10.11.2012 06:00 5,6 C 96 % 1008,0 hPa 0,0 l/m N 0,00 h 0 W/m 0,3 km/h (0 Bft)
10.11.2012 07:00 5,6 C 96 % 1007,8 hPa 0,0 l/m N 0,00 h 5 W/m 0,0 km/h (0 Bft)
10.11.2012 08:00 5,9 C 96 % 1008,0 hPa 1,2 l/m N 0,00 h 14 W/m 1,9 km/h (1 Bft)
10.11.2012 09:00 6,9 C 97 % 1006,5 hPa 0,2 l/m N 0,00 h 38 W/m 2,1 km/h (1 Bft)
10.11.2012 10:00 7,6 C 97 % 1005,7 hPa 0,0 l/m N-NW 0,00 h 69 W/m 7,6 km/h (2 Bft)
10.11.2012 11:00 7,9 C 97 % 1005,4 hPa 0,0 l/m N-NW 0,00 h 53 W/m 11,7 km/h (2 Bft)
10.11.2012 12:00 8,5 C 96 % 1005,4 hPa 0,0 l/m N-NW 0,00 h 63 W/m 7,9 km/h (2 Bft)
10.11.2012 13:00 9,0 C 94 % 1005,0 hPa 0,0 l/m N-NW 0,00 h 60 W/m 2,1 km/h (1 Bft)
10.11.2012 14:00 9,1 C 95 % 1004,3 hPa 0,0 l/m N-NW 0,00 h 96 W/m 4,7 km/h (1 Bft)
10.11.2012 15:00 9,3 C 95 % 1003,8 hPa 0,0 l/m SW 0,00 h 57 W/m 7,1 km/h (2 Bft)
10.11.2012 16:00 9,1 C 95 % 1003,7 hPa 0,0 l/m N 0,00 h 9 W/m 0,7 km/h (0 Bft)
10.11.2012 17:00 8,7 C 95 % 1004,0 hPa 0,0 l/m N 0,00 h 0 W/m 0,5 km/h (0 Bft)
10.11.2012 18:00 8,3 C 95 % 1004,3 hPa 0,0 l/m W-SW 0,00 h 0 W/m 2,5 km/h (1 Bft)
10.11.2012 19:00 8,1 C 96 % 1004,6 hPa 0,0 l/m NW 0,00 h 0 W/m 4,9 km/h (1 Bft)
10.11.2012 20:00 8,1 C 96 % 1005,0 hPa 0,6 l/m N 0,00 h 0 W/m 1,9 km/h (1 Bft)
10.11.2012 21:00 7,8 C 96 % 1005,7 hPa 0,4 l/m N 0,00 h 0 W/m 0,9 km/h (0 Bft)
10.11.2012 22:00 7,8 C 97 % 1005,7 hPa 0,2 l/m NW 0,00 h 0 W/m 1,3 km/h (1 Bft)
10.11.2012 23:00 7,7 C 97 % 1006,2 hPa 0,2 l/m N 0,00 h 0 W/m 0,8 km/h (0 Bft)
11.11.2012 00:00 7,7 C 97 % 1006,5 hPa 0,2 l/m N 0,00 h 0 W/m 0,7 km/h (0 Bft)
11.11.2012 01:00 7,7 C 97 % 1006,4 hPa 0,4 l/m NW 0,00 h 0 W/m 3,1 km/h (1 Bft)
11.11.2012 02:00 7,8 C 97 % 1006,1 hPa 0,8 l/m NW 0,00 h 0 W/m 4,0 km/h (1 Bft)
11.11.2012 03:00 7,8 C 98 % 1006,0 hPa 0,8 l/m W-SW 0,00 h 0 W/m 6,4 km/h (2 Bft)
11.11.2012 04:00 8,1 C 98 % 1006,1 hPa 1,0 l/m W-SW 0,00 h 0 W/m 4,0 km/h (1 Bft)
11.11.2012 05:00 8,1 C 98 % 1005,8 hPa 1,6 l/m W-SW 0,00 h 0 W/m 2,5 km/h (1 Bft)
11.11.2012 06:00 7,9 C 98 % 1006,3 hPa 2,0 l/m N 0,00 h 0 W/m 1,1 km/h (0 Bft)
11.11.2012 07:00 7,8 C 98 % 1007,2 hPa 2,4 l/m W-SW 0,00 h 5 W/m 2,7 km/h (1 Bft)
11.11.2012 08:00 8,1 C 98 % 1007,7 hPa 2,2 l/m W-SW 0,00 h 8 W/m 3,2 km/h (1 Bft)
11.11.2012 09:00 8,1 C 99 % 1008,0 hPa 1,8 l/m N 0,00 h 14 W/m 0,7 km/h (0 Bft)
11.11.2012 10:00 8,3 C 99 % 1007,8 hPa 2,6 l/m N 0,00 h 19 W/m 2,1 km/h (1 Bft)
11.11.2012 11:00 8,4 C 99 % 1008,3 hPa 2,2 l/m W-SW 0,00 h 32 W/m 3,3 km/h (1 Bft)
11.11.2012 12:00 8,6 C 99 % 1008,3 hPa 1,4 l/m NW 0,00 h 47 W/m 8,8 km/h (2 Bft)
11.11.2012 13:00 8,7 C 99 % 1009,0 hPa 0,8 l/m N-NW 0,00 h 47 W/m 12,9 km/h (3 Bft)
11.11.2012 14:00 8,8 C 99 % 1010,1 hPa 1,4 l/m N-NW 0,00 h 32 W/m 8,6 km/h (2 Bft)
11.11.2012 15:00 8,7 C 99 % 1011,1 hPa 0,2 l/m N-NW 0,00 h 24 W/m 4,0 km/h (1 Bft)
11.11.2012 16:00 8,6 C 99 % 1012,0 hPa 0,2 l/m N 0,00 h 8 W/m 2,5 km/h (1 Bft)
11.11.2012 17:00 8,4 C 98 % 1013,1 hPa 0,0 l/m N 0,00 h 0 W/m 2,7 km/h (1 Bft)
11.11.2012 18:00 8,2 C 99 % 1014,4 hPa 0,2 l/m N 0,00 h 0 W/m 2,7 km/h (1 Bft)
11.11.2012 19:00 8,1 C 98 % 1015,4 hPa 0,0 l/m N-NW 0,00 h 0 W/m 4,1 km/h (1 Bft)
11.11.2012 20:00 7,9 C 99 % 1016,4 hPa 0,0 l/m N-NW 0,00 h 0 W/m 1,2 km/h (1 Bft)
11.11.2012 21:00 7,8 C 99 % 1017,2 hPa 0,0 l/m N 0,00 h 0 W/m 0,3 km/h (0 Bft)
11.11.2012 22:00 7,7 C 99 % 1017,9 hPa 0,0 l/m N 0,00 h 0 W/m 0,0 km/h (0 Bft)
11.11.2012 23:00 7,5 C 99 % 1018,5 hPa 0,4 l/m N-NO 0,00 h 0 W/m 5,9 km/h (2 Bft)
Min-Datum _ 08.11.12 09.11.12 05.11.12 - - - - 05.11.12
_ Min-Zeit 07:05 14:20 00:40 - - - - 07:50
Minimum _ -2,1 C 66 % 1000,9 hPa - - - - 0,0 km/h (0 Bft)
Max-Datum _ 09.11.12 09.11.12 07.11.12 11.11.12 - 05.11.12 06.11.12 07.11.12
_ Max-Zeit 14:25 07:45 11:05 10:10 - 08:45 13:15 10:45
Maximum _ 11,8 C 100 % 1029,5 hPa 2,6 l/m - 0,08 h 504 W/m 41,8 km/h
W-SW (6 Bft)
Durchschnitt _ 5,2 C 91 % 1015,2 hPa #34,8 l/m W-SW #12:45 h 100 W/m 7,3 km/h (2 Bft)